createdAt,value
2022-12-04T00:02:23.989Z,42.43
2022-12-04T00:05:11.421Z,40.30
2022-12-04T00:07:58.835Z,49.00
2022-12-04T00:10:46.247Z,46.87
2022-12-04T00:13:34.170Z,46.33
2022-12-04T00:16:23.119Z,50.67
2022-12-04T00:19:10.804Z,45.37
2022-12-04T00:21:58.178Z,50.63
2022-12-04T00:24:45.560Z,45.93
2022-12-04T00:27:32.948Z,49.23
2022-12-04T00:30:20.353Z,50.17
2022-12-04T00:33:07.702Z,51.57
2022-12-04T00:36:03.073Z,50.40
2022-12-04T00:38:51.111Z,50.07
2022-12-04T00:41:39.399Z,49.03
2022-12-04T00:44:27.208Z,46.90
2022-12-04T00:47:14.584Z,52.80
2022-12-04T00:50:02.077Z,49.20
2022-12-04T00:52:49.642Z,49.33
2022-12-04T00:55:40.482Z,50.00
2022-12-04T00:58:27.868Z,47.57
2022-12-04T01:01:16.920Z,43.47
2022-12-04T01:04:04.401Z,50.43
2022-12-04T01:06:51.785Z,48.90
2022-12-04T01:09:39.193Z,50.33
2022-12-04T01:12:26.540Z,50.73
2022-12-04T01:15:13.963Z,44.87
2022-12-04T01:18:01.380Z,46.63
2022-12-04T01:20:49.805Z,50.57
2022-12-04T01:23:37.239Z,46.43
2022-12-04T01:26:25.034Z,43.73
2022-12-04T01:29:12.517Z,48.93
2022-12-04T01:32:00.176Z,50.80
2022-12-04T01:34:50.105Z,49.23
2022-12-04T01:37:37.661Z,47.90
2022-12-04T01:40:25.003Z,47.63
2022-12-04T01:43:13.636Z,46.67
2022-12-04T01:46:01.935Z,48.20
2022-12-04T01:48:53.514Z,52.47
2022-12-04T01:51:42.178Z,53.03
2022-12-04T01:54:31.756Z,53.67
2022-12-04T01:57:20.520Z,48.13
2022-12-04T02:00:12.674Z,49.93
2022-12-04T02:03:00.186Z,49.83
2022-12-04T02:05:47.640Z,48.67
2022-12-04T02:08:35.663Z,47.73
2022-12-04T02:11:23.054Z,47.60
2022-12-04T02:14:22.330Z,42.70
2022-12-04T02:17:29.894Z,43.87
2022-12-04T02:20:33.584Z,45.20
2022-12-04T02:23:20.940Z,45.67
2022-12-04T02:26:08.339Z,46.13
2022-12-04T02:28:59.161Z,50.73
2022-12-04T02:32:03.198Z,46.97
2022-12-04T02:34:59.847Z,46.87
2022-12-04T02:37:48.681Z,43.63
2022-12-04T02:40:42.275Z,47.17
2022-12-04T02:43:55.850Z,47.60
2022-12-04T02:46:45.570Z,48.30
2022-12-04T02:49:35.399Z,50.20
2022-12-04T02:52:25.191Z,50.27
2022-12-04T02:55:15.176Z,47.47
2022-12-04T02:58:05.761Z,43.73
2022-12-04T03:00:54.750Z,48.33
2022-12-04T03:03:42.198Z,43.57
2022-12-04T03:06:31.697Z,47.37
2022-12-04T03:09:21.704Z,51.63
2022-12-04T03:12:15.814Z,51.13
2022-12-04T03:15:06.132Z,50.73
2022-12-04T03:17:59.246Z,47.77
2022-12-04T03:20:48.842Z,48.80
2022-12-04T03:23:40.327Z,46.90
2022-12-04T03:26:30.458Z,46.70
2022-12-04T03:29:30.110Z,48.53
2022-12-04T03:32:24.495Z,50.17
2022-12-04T03:35:34.001Z,47.70
2022-12-04T03:38:41.627Z,47.43
2022-12-04T03:41:37.602Z,48.70
2022-12-04T03:44:31.170Z,54.53
2022-12-04T03:47:21.270Z,49.63
2022-12-04T03:50:11.806Z,47.33
2022-12-04T03:53:09.164Z,53.93
2022-12-04T03:56:04.002Z,51.33
2022-12-04T03:58:53.406Z,50.70
2022-12-04T04:01:43.460Z,56.73
2022-12-04T04:04:36.602Z,52.30
2022-12-04T04:07:35.054Z,50.80
2022-12-04T04:10:25.408Z,47.90
2022-12-04T04:13:33.997Z,50.67
2022-12-04T04:16:41.043Z,47.83
2022-12-04T04:19:49.080Z,50.33
2022-12-04T04:22:56.336Z,55.63
2022-12-04T04:25:44.409Z,49.00
2022-12-04T04:28:34.819Z,56.47
2022-12-04T04:31:27.497Z,53.67
2022-12-04T04:34:33.560Z,53.77
2022-12-04T04:37:27.011Z,53.47
2022-12-04T04:40:19.676Z,50.77
2022-12-04T04:43:25.914Z,49.97
2022-12-04T04:46:23.614Z,54.87
2022-12-04T04:49:11.934Z,48.50
2022-12-04T04:51:59.541Z,49.33
2022-12-04T04:54:47.755Z,54.17
2022-12-04T04:57:36.626Z,56.27
2022-12-04T05:00:24.207Z,59.77
2022-12-04T05:03:18.674Z,51.30
2022-12-04T05:06:06.596Z,54.77
2022-12-04T05:08:53.939Z,64.27
2022-12-04T05:11:41.330Z,60.30
2022-12-04T05:14:28.676Z,61.63
2022-12-04T05:17:16.381Z,55.17
2022-12-04T05:20:04.916Z,56.47
2022-12-04T05:22:52.252Z,52.70
2022-12-04T05:25:39.607Z,49.83
2022-12-04T05:28:27.657Z,50.67
2022-12-04T05:31:15.113Z,56.27
2022-12-04T05:34:02.509Z,58.33
2022-12-04T05:36:49.858Z,55.43
2022-12-04T05:39:37.303Z,56.97
2022-12-04T05:42:24.678Z,60.10
2022-12-04T05:45:12.637Z,56.37
2022-12-04T05:47:59.990Z,58.03
2022-12-04T05:50:47.402Z,55.50
2022-12-04T05:53:34.903Z,58.23
2022-12-04T05:56:22.324Z,57.13
2022-12-04T05:59:09.855Z,55.13
2022-12-04T06:01:57.326Z,59.63
2022-12-04T06:04:44.980Z,54.03
2022-12-04T06:07:32.416Z,66.27
2022-12-04T06:10:19.843Z,53.80
2022-12-04T06:13:07.766Z,54.47
2022-12-04T06:15:55.264Z,55.03
2022-12-04T06:18:42.996Z,57.53
2022-12-04T06:21:31.789Z,53.80
2022-12-04T06:24:23.285Z,57.23
2022-12-04T06:27:26.731Z,58.83
2022-12-04T06:30:15.233Z,64.13
2022-12-04T06:33:02.575Z,61.37
2022-12-04T06:35:57.925Z,62.13
2022-12-04T06:38:45.942Z,57.13
2022-12-04T06:41:33.344Z,60.83
2022-12-04T06:44:20.708Z,62.60
2022-12-04T06:47:08.747Z,60.40
2022-12-04T06:49:56.435Z,59.83
2022-12-04T06:52:43.855Z,63.00
2022-12-04T06:55:31.231Z,60.87
2022-12-04T06:58:18.623Z,58.13
2022-12-04T07:01:10.391Z,51.77
2022-12-04T07:03:58.363Z,62.93
2022-12-04T07:06:45.694Z,59.67
2022-12-04T07:09:33.112Z,57.07
2022-12-04T07:12:20.493Z,59.10
2022-12-04T07:15:08.081Z,62.70
2022-12-04T07:17:55.484Z,58.97
2022-12-04T07:20:42.811Z,60.67
2022-12-04T07:23:30.288Z,60.37
2022-12-04T07:26:17.663Z,58.33
2022-12-04T07:29:05.079Z,66.23
2022-12-04T07:31:52.534Z,68.60
2022-12-04T07:34:39.926Z,56.67
2022-12-04T07:37:27.294Z,59.73
2022-12-04T07:40:15.059Z,62.60
2022-12-04T07:43:02.415Z,55.17
2022-12-04T07:45:49.842Z,59.87
2022-12-04T07:48:37.203Z,63.63
2022-12-04T07:51:26.123Z,58.07
2022-12-04T07:54:13.562Z,60.17
2022-12-04T07:57:00.931Z,58.13
2022-12-04T07:59:48.309Z,58.60
2022-12-04T08:02:35.643Z,55.93
2022-12-04T08:05:23.060Z,64.53
2022-12-04T08:08:10.549Z,56.83
2022-12-04T08:10:57.993Z,65.73
2022-12-04T08:13:46.037Z,62.20
2022-12-04T08:16:33.789Z,60.03
2022-12-04T08:19:21.715Z,56.23
2022-12-04T08:22:09.181Z,57.20
2022-12-04T08:24:56.873Z,57.83
2022-12-04T08:27:47.633Z,57.80
2022-12-04T08:30:35.844Z,59.63
2022-12-04T08:33:23.264Z,57.37
2022-12-04T08:36:11.883Z,57.70
2022-12-04T08:38:59.418Z,57.43
2022-12-04T08:41:52.374Z,52.50
2022-12-04T08:44:44.010Z,55.17
2022-12-04T08:47:34.736Z,53.93
2022-12-04T08:50:23.577Z,57.47
2022-12-04T08:53:11.765Z,55.07
2022-12-04T08:56:04.161Z,57.17
2022-12-04T08:58:54.531Z,52.20
2022-12-04T09:01:43.397Z,49.30
2022-12-04T09:04:32.200Z,51.63
2022-12-04T09:07:20.776Z,57.47
2022-12-04T09:10:09.507Z,56.20
2022-12-04T09:13:00.303Z,56.43
2022-12-04T09:15:50.352Z,55.87
2022-12-04T09:18:42.824Z,57.63
2022-12-04T09:21:32.104Z,56.73
2022-12-04T09:24:21.446Z,58.47
2022-12-04T09:27:14.758Z,54.20
2022-12-04T09:30:03.700Z,59.67
2022-12-04T09:32:53.117Z,56.70
2022-12-04T09:35:41.661Z,59.03
2022-12-04T09:38:33.522Z,57.17
2022-12-04T09:41:25.402Z,50.40
2022-12-04T09:44:20.224Z,60.50
2022-12-04T09:47:17.886Z,50.97
2022-12-04T09:50:19.033Z,52.00
2022-12-04T09:53:10.626Z,49.37
2022-12-04T09:56:08.573Z,58.23
2022-12-04T09:59:19.617Z,54.80
2022-12-04T10:02:20.826Z,54.60
2022-12-04T10:05:17.736Z,53.80
2022-12-04T10:08:09.340Z,59.93
2022-12-04T10:10:58.788Z,59.90
2022-12-04T10:14:11.912Z,55.17
2022-12-04T10:17:15.498Z,53.23
2022-12-04T10:20:10.695Z,56.77
2022-12-04T10:23:14.492Z,53.93
2022-12-04T10:26:04.275Z,56.83
2022-12-04T10:28:55.538Z,53.37
2022-12-04T10:31:45.553Z,51.17
2022-12-04T10:34:34.670Z,57.17
2022-12-04T10:37:23.642Z,51.97
2022-12-04T10:40:19.393Z,56.57
2022-12-04T10:43:20.984Z,54.87
2022-12-04T10:46:14.562Z,51.00
2022-12-04T10:49:03.842Z,50.10
2022-12-04T10:51:52.375Z,53.80
2022-12-04T10:54:45.630Z,51.57
2022-12-04T10:57:38.754Z,53.53
2022-12-04T11:00:29.372Z,52.40
2022-12-04T11:03:28.657Z,48.53
2022-12-04T11:06:17.417Z,53.33
2022-12-04T11:09:06.138Z,52.17
2022-12-04T11:11:55.511Z,48.30
2022-12-04T11:14:46.957Z,51.33
2022-12-04T11:17:36.973Z,46.93
2022-12-04T11:20:26.945Z,53.60
2022-12-04T11:23:16.166Z,48.83
2022-12-04T11:26:06.399Z,51.20
2022-12-04T11:28:55.834Z,46.90
2022-12-04T11:31:49.515Z,48.43
2022-12-04T11:34:40.890Z,45.33
2022-12-04T11:37:33.093Z,44.67
2022-12-04T11:40:22.512Z,47.33
2022-12-04T11:43:17.997Z,48.40
2022-12-04T11:46:12.985Z,46.97
2022-12-04T11:49:04.694Z,41.63
2022-12-04T11:52:05.690Z,44.80
2022-12-04T11:55:13.162Z,43.30
2022-12-04T11:58:05.333Z,42.80
2022-12-04T12:01:06.880Z,41.27
2022-12-04T12:03:55.275Z,45.70
2022-12-04T12:07:05.065Z,45.50
2022-12-04T12:09:57.357Z,41.37
2022-12-04T12:12:58.588Z,42.03
2022-12-04T12:16:26.597Z,40.17
2022-12-04T12:19:15.271Z,43.43
2022-12-04T12:22:16.389Z,43.43
2022-12-04T12:25:23.226Z,40.93
2022-12-04T12:28:12.222Z,43.40
2022-12-04T12:31:32.635Z,41.53
2022-12-04T12:34:36.346Z,39.37
2022-12-04T12:37:31.007Z,39.30
2022-12-04T12:40:28.122Z,38.90
2022-12-04T12:43:31.963Z,33.53
2022-12-04T12:46:49.557Z,37.97
2022-12-04T12:49:50.724Z,38.73
2022-12-04T12:53:08.067Z,35.20
2022-12-04T12:55:59.050Z,43.77
2022-12-04T12:58:57.629Z,36.47
2022-12-04T13:01:58.742Z,40.37
2022-12-04T13:04:53.339Z,37.13
2022-12-04T13:07:47.074Z,42.10
2022-12-04T13:10:44.620Z,42.03
2022-12-04T13:13:35.056Z,41.90
2022-12-04T13:16:36.379Z,37.53
2022-12-04T13:19:27.037Z,35.70
2022-12-04T13:22:31.973Z,38.07
2022-12-04T13:25:24.132Z,38.20
2022-12-04T13:28:20.301Z,36.70
2022-12-04T13:31:19.067Z,42.33
2022-12-04T13:34:24.452Z,38.13
2022-12-04T13:37:24.155Z,41.63
2022-12-04T13:40:33.039Z,37.03
2022-12-04T13:43:33.078Z,38.57
2022-12-04T13:46:26.800Z,42.53
2022-12-04T13:49:31.100Z,42.03
2022-12-04T13:52:24.268Z,39.10
2022-12-04T13:55:26.254Z,39.20
2022-12-04T13:58:15.232Z,42.83
2022-12-04T14:01:02.807Z,42.77
2022-12-04T14:03:52.542Z,41.97
2022-12-04T14:06:42.777Z,42.33
2022-12-04T14:09:30.135Z,39.33
2022-12-04T14:12:17.995Z,40.73
2022-12-04T14:15:09.495Z,41.30
2022-12-04T14:18:16.556Z,50.23
2022-12-04T14:21:05.657Z,47.03
2022-12-04T14:23:53.944Z,44.40
2022-12-04T14:27:10.586Z,47.17
2022-12-04T14:29:57.580Z,63.70
2022-12-04T14:32:46.840Z,46.23
2022-12-04T14:35:34.313Z,45.00
2022-12-04T14:38:22.944Z,49.63
2022-12-04T14:41:10.307Z,52.27
2022-12-04T14:43:57.970Z,69.50
2022-12-04T14:46:46.870Z,62.93
2022-12-04T14:49:53.080Z,49.47
2022-12-04T14:52:50.756Z,61.50
2022-12-04T14:55:57.654Z,62.60
2022-12-04T14:58:45.350Z,52.13
2022-12-04T15:01:38.306Z,43.80
2022-12-04T15:04:28.439Z,56.93
2022-12-04T15:07:20.223Z,55.33
2022-12-04T15:10:37.558Z,55.63
2022-12-04T15:13:32.322Z,54.63
2022-12-04T15:16:20.976Z,52.27
2022-12-04T15:19:21.191Z,52.83
2022-12-04T15:22:21.780Z,48.30
2022-12-04T15:25:16.985Z,49.30
2022-12-04T15:28:09.354Z,48.53
2022-12-04T15:30:57.426Z,48.37
2022-12-04T15:33:45.654Z,52.73
2022-12-04T15:36:47.582Z,51.67
2022-12-04T15:39:37.834Z,44.93
2022-12-04T15:42:25.217Z,45.23
2022-12-04T15:45:12.700Z,46.53
2022-12-04T15:48:00.135Z,47.87
2022-12-04T15:50:56.132Z,46.13
2022-12-04T15:53:46.157Z,49.57
2022-12-04T15:56:33.125Z,44.83
2022-12-04T15:59:20.221Z,46.43
2022-12-04T16:02:31.583Z,44.60
2022-12-04T16:05:21.526Z,42.73
2022-12-04T16:08:28.887Z,46.70
2022-12-04T16:11:21.984Z,39.97
2022-12-04T16:14:08.892Z,40.13
2022-12-04T16:17:05.542Z,44.93
2022-12-04T16:19:53.691Z,43.13
2022-12-04T16:22:42.189Z,41.63
2022-12-04T16:25:32.555Z,36.20
2022-12-04T16:28:19.568Z,43.07
2022-12-04T16:31:06.834Z,43.43
2022-12-04T16:33:53.965Z,40.33
2022-12-04T16:36:41.403Z,39.83
2022-12-04T16:39:28.361Z,35.23
2022-12-04T16:42:27.371Z,41.47
2022-12-04T16:45:20.707Z,41.03
2022-12-04T16:48:07.894Z,43.80
2022-12-04T16:50:54.854Z,40.73
2022-12-04T16:53:41.845Z,43.00
2022-12-04T16:56:28.768Z,41.27
2022-12-04T16:59:15.791Z,34.83
2022-12-04T17:02:06.263Z,42.67
2022-12-04T17:04:57.483Z,37.10
2022-12-04T17:07:45.277Z,38.10
2022-12-04T17:10:32.330Z,35.43
2022-12-04T17:13:20.771Z,37.60
2022-12-04T17:16:07.987Z,37.73
2022-12-04T17:18:55.131Z,37.57
2022-12-04T17:21:42.153Z,35.97
2022-12-04T17:24:29.074Z,35.57
2022-12-04T17:27:15.994Z,35.03
2022-12-04T17:30:04.563Z,37.07
2022-12-04T17:32:51.851Z,35.33
2022-12-04T17:35:42.599Z,38.30
2022-12-04T17:38:29.578Z,37.50
2022-12-04T17:41:16.731Z,45.60
2022-12-04T17:44:04.216Z,41.93
2022-12-04T17:46:51.272Z,38.23
2022-12-04T17:49:38.630Z,36.57
2022-12-04T17:52:25.623Z,35.93
2022-12-04T17:55:13.291Z,37.47
2022-12-04T17:58:00.223Z,37.70
2022-12-04T18:00:47.257Z,37.13
2022-12-04T18:03:34.861Z,38.40
2022-12-04T18:06:24.944Z,34.03
2022-12-04T18:09:14.711Z,36.57
2022-12-04T18:12:02.015Z,34.10
2022-12-04T18:14:49.300Z,36.00
2022-12-04T18:17:37.339Z,38.27
2022-12-04T18:20:24.244Z,35.70
2022-12-04T18:23:11.218Z,40.00
2022-12-04T18:25:59.826Z,40.53
2022-12-04T18:28:47.833Z,36.83
2022-12-04T18:31:34.803Z,40.37
2022-12-04T18:34:22.615Z,38.27
2022-12-04T18:37:10.008Z,38.53
2022-12-04T18:39:59.120Z,37.87
2022-12-04T18:42:49.220Z,41.70
2022-12-04T18:45:36.231Z,40.57
2022-12-04T18:48:23.191Z,37.57
2022-12-04T18:51:20.470Z,34.30
2022-12-04T18:54:11.597Z,46.47
2022-12-04T18:56:58.605Z,35.97
2022-12-04T18:59:45.538Z,38.13
2022-12-04T19:02:32.510Z,38.43
2022-12-04T19:05:19.644Z,39.90
2022-12-04T19:08:06.694Z,36.87
2022-12-04T19:10:53.669Z,33.83
2022-12-04T19:13:41.108Z,36.43
2022-12-04T19:16:28.658Z,34.10
2022-12-04T19:19:15.793Z,32.70
2022-12-04T19:22:03.873Z,34.00
2022-12-04T19:24:50.872Z,31.97
2022-12-04T19:27:37.943Z,37.07
2022-12-04T19:30:24.964Z,32.43
2022-12-04T19:33:11.947Z,35.17
2022-12-04T19:36:02.016Z,32.17
2022-12-04T19:38:49.409Z,39.30
2022-12-04T19:41:38.500Z,32.13
2022-12-04T19:44:47.917Z,36.27
2022-12-04T19:47:32.609Z,39.73
2022-12-04T19:50:19.510Z,33.70
2022-12-04T19:53:06.431Z,41.37
2022-12-04T19:55:53.339Z,34.33
2022-12-04T19:58:40.602Z,36.43
2022-12-04T20:01:29.751Z,36.97
2022-12-04T20:04:16.861Z,38.30
2022-12-04T20:07:03.982Z,35.47
2022-12-04T20:09:52.650Z,31.43
2022-12-04T20:12:39.780Z,30.87
2022-12-04T20:15:27.003Z,37.57
2022-12-04T20:18:13.946Z,35.73
2022-12-04T20:21:01.951Z,37.53
2022-12-04T20:23:50.608Z,40.13
2022-12-04T20:26:39.017Z,40.80
2022-12-04T20:29:25.999Z,38.03
2022-12-04T20:32:13.100Z,38.93
2022-12-04T20:35:00.066Z,39.63
2022-12-04T20:37:47.028Z,40.57
2022-12-04T20:40:34.723Z,42.97
2022-12-04T20:43:21.658Z,42.27
2022-12-04T20:46:19.251Z,46.47
2022-12-04T20:49:08.706Z,40.77
2022-12-04T20:51:55.698Z,41.53
2022-12-04T20:54:42.630Z,43.50
2022-12-04T20:57:33.100Z,43.67
2022-12-04T21:00:20.130Z,41.80
2022-12-04T21:03:07.176Z,38.33
2022-12-04T21:05:54.566Z,42.73
2022-12-04T21:08:54.118Z,38.73
2022-12-04T21:11:44.123Z,43.13
2022-12-04T21:14:51.463Z,43.97
2022-12-04T21:17:39.020Z,44.00
2022-12-04T21:20:25.962Z,43.73
2022-12-04T21:23:12.925Z,42.07
2022-12-04T21:25:59.819Z,44.57
2022-12-04T21:28:47.330Z,43.23
2022-12-04T21:31:35.898Z,42.37
2022-12-04T21:34:22.921Z,40.80
2022-12-04T21:37:10.355Z,41.90
2022-12-04T21:39:59.410Z,40.30
2022-12-04T21:42:46.605Z,43.90
2022-12-04T21:45:33.570Z,36.63
2022-12-04T21:48:20.454Z,43.10
2022-12-04T21:51:16.885Z,40.77
2022-12-04T21:54:08.568Z,41.30
2022-12-04T21:56:56.233Z,47.07
2022-12-04T21:59:43.441Z,41.97
2022-12-04T22:02:30.399Z,37.70
2022-12-04T22:05:17.437Z,40.93
2022-12-04T22:08:04.775Z,43.67
2022-12-04T22:10:51.854Z,35.73
2022-12-04T22:13:39.453Z,42.57
2022-12-04T22:16:30.390Z,42.43
2022-12-04T22:19:18.337Z,38.30
2022-12-04T22:22:05.289Z,42.03
2022-12-04T22:24:52.575Z,39.33
2022-12-04T22:27:39.619Z,36.97
2022-12-04T22:30:28.265Z,32.73
2022-12-04T22:33:15.763Z,32.20
2022-12-04T22:36:05.520Z,34.50
2022-12-04T22:39:10.440Z,34.17
2022-12-04T22:41:58.048Z,35.60
2022-12-04T22:44:45.201Z,33.63
2022-12-04T22:47:32.450Z,32.03
2022-12-04T22:50:19.461Z,35.87
2022-12-04T22:53:06.410Z,33.03
2022-12-04T22:55:53.631Z,30.53
2022-12-04T22:58:41.220Z,33.67
2022-12-04T23:01:31.043Z,29.40
2022-12-04T23:04:19.204Z,33.10
2022-12-04T23:07:06.147Z,30.57
2022-12-04T23:09:53.085Z,32.07
2022-12-04T23:12:40.028Z,30.03
2022-12-04T23:15:26.953Z,32.73
2022-12-04T23:18:14.510Z,30.03
2022-12-04T23:21:04.138Z,32.20
2022-12-04T23:23:53.177Z,31.70
2022-12-04T23:26:43.828Z,33.33
2022-12-04T23:32:37.794Z,30.07
2022-12-04T23:35:24.779Z,32.00
2022-12-04T23:38:11.794Z,31.83
2022-12-04T23:41:03.580Z,32.93
2022-12-04T23:43:51.854Z,34.27
2022-12-04T23:46:38.844Z,32.77
2022-12-04T23:49:25.846Z,32.17
2022-12-04T23:52:12.833Z,30.83
2022-12-04T23:54:59.751Z,31.50
2022-12-04T23:57:46.676Z,33.07
